createdAt,value
2022-08-24T00:00:34.985Z,23.88
2022-08-24T00:03:02.549Z,23.86
2022-08-24T00:05:29.845Z,23.79
2022-08-24T00:07:56.945Z,23.66
2022-08-24T00:10:25.122Z,23.63
2022-08-24T00:12:52.325Z,23.47
2022-08-24T00:15:19.455Z,23.45
2022-08-24T00:17:46.442Z,23.49
2022-08-24T00:20:13.828Z,23.43
2022-08-24T00:22:41.244Z,23.45
2022-08-24T00:25:11.206Z,23.60
2022-08-24T00:27:39.326Z,23.44
2022-08-24T00:30:09.433Z,23.41
2022-08-24T00:32:37.830Z,23.49
2022-08-24T00:35:09.022Z,23.20
2022-08-24T00:37:36.823Z,23.51
2022-08-24T00:40:07.288Z,23.55
2022-08-24T00:42:34.115Z,23.61
2022-08-24T00:45:00.935Z,23.84
2022-08-24T00:47:34.605Z,23.68
2022-08-24T00:50:06.746Z,23.68
2022-08-24T00:52:39.798Z,23.84
2022-08-24T00:55:15.735Z,23.79
2022-08-24T00:57:46.314Z,23.40
2022-08-24T01:00:19.176Z,23.70
2022-08-24T01:02:50.184Z,23.76
2022-08-24T01:05:17.893Z,23.85
2022-08-24T01:07:49.355Z,23.90
2022-08-24T01:10:26.090Z,23.85
2022-08-24T01:13:00.348Z,23.72
2022-08-24T01:15:30.363Z,23.70
2022-08-24T01:18:16.531Z,23.59
2022-08-24T01:20:49.616Z,23.67
2022-08-24T01:23:55.171Z,23.57
2022-08-24T01:26:49.445Z,23.58
2022-08-24T01:29:23.682Z,23.63
2022-08-24T01:31:53.283Z,23.59
2022-08-24T01:34:21.276Z,23.61
2022-08-24T01:36:56.042Z,23.68
2022-08-24T01:39:32.944Z,23.65
2022-08-24T01:42:00.892Z,23.63
2022-08-24T01:44:30.740Z,23.64
2022-08-24T01:46:57.749Z,23.58
2022-08-24T01:49:30.719Z,23.66
2022-08-24T01:51:59.557Z,23.77
2022-08-24T01:54:27.622Z,23.85
2022-08-24T01:56:54.937Z,23.82
2022-08-24T01:59:22.337Z,23.67
2022-08-24T02:01:55.247Z,23.77
2022-08-24T02:04:22.785Z,23.71
2022-08-24T02:06:50.094Z,23.59
2022-08-24T02:09:18.216Z,23.48
2022-08-24T02:11:45.216Z,23.68
2022-08-24T02:14:14.591Z,23.54
2022-08-24T02:16:42.704Z,23.60
2022-08-24T02:19:10.006Z,23.45
2022-08-24T02:21:38.208Z,23.49
2022-08-24T02:24:07.731Z,23.56
2022-08-24T02:26:34.809Z,23.67
2022-08-24T02:29:03.615Z,23.73
2022-08-24T02:31:31.532Z,23.65
2022-08-24T02:33:58.912Z,23.73
2022-08-24T02:36:26.738Z,23.71
2022-08-24T02:38:58.061Z,23.80
2022-08-24T02:41:26.021Z,23.81
2022-08-24T02:43:54.436Z,23.87
2022-08-24T02:46:23.814Z,23.67
2022-08-24T02:48:57.401Z,23.71
2022-08-24T02:51:45.017Z,23.85
2022-08-24T02:54:19.515Z,24.04
2022-08-24T02:56:48.592Z,23.98
2022-08-24T02:59:16.863Z,23.96
2022-08-24T03:01:44.964Z,24.06
2022-08-24T03:04:13.506Z,24.07
2022-08-24T03:06:40.470Z,24.06
2022-08-24T03:09:08.220Z,24.03
2022-08-24T03:11:35.098Z,23.61
2022-08-24T03:14:02.075Z,23.57
2022-08-24T03:16:30.625Z,23.50
2022-08-24T03:18:57.979Z,23.42
2022-08-24T03:21:28.681Z,23.38
2022-08-24T03:23:56.585Z,23.38
2022-08-24T03:26:24.762Z,23.15
2022-08-24T03:28:52.010Z,23.06
2022-08-24T03:31:19.730Z,22.98
2022-08-24T03:33:48.885Z,22.84
2022-08-24T03:36:16.848Z,22.71
2022-08-24T03:38:44.009Z,22.57
2022-08-24T03:41:11.512Z,22.60
2022-08-24T03:43:46.368Z,22.60
2022-08-24T03:46:20.019Z,22.57
2022-08-24T03:48:47.805Z,22.41
2022-08-24T03:51:19.131Z,22.44
2022-08-24T03:53:47.844Z,22.32
2022-08-24T03:56:15.614Z,22.57
2022-08-24T03:58:42.771Z,22.31
2022-08-24T04:01:10.904Z,22.42
2022-08-24T04:03:43.986Z,22.40
2022-08-24T04:06:13.631Z,22.39
2022-08-24T04:08:41.710Z,22.60
2022-08-24T04:11:19.810Z,22.82
2022-08-24T04:13:48.175Z,22.95
2022-08-24T04:16:20.258Z,22.71
2022-08-24T04:18:53.510Z,22.81
2022-08-24T04:21:27.348Z,22.67
2022-08-24T04:23:55.197Z,22.71
2022-08-24T04:26:43.743Z,22.65
2022-08-24T04:29:16.632Z,22.62
2022-08-24T04:31:48.501Z,22.69
2022-08-24T04:34:17.464Z,22.88
2022-08-24T04:36:46.251Z,22.53
2022-08-24T04:39:14.066Z,22.42
2022-08-24T04:41:50.920Z,22.42
2022-08-24T04:44:20.592Z,22.31
2022-08-24T04:46:48.492Z,22.24
2022-08-24T04:49:15.460Z,22.23
2022-08-24T04:51:43.664Z,22.08
2022-08-24T04:54:10.792Z,22.28
2022-08-24T04:56:39.196Z,22.36
2022-08-24T04:59:07.128Z,22.48
2022-08-24T05:01:35.024Z,22.39
2022-08-24T05:04:05.267Z,22.35
2022-08-24T05:06:33.901Z,22.63
2022-08-24T05:09:02.449Z,22.73
2022-08-24T05:11:30.013Z,22.59
2022-08-24T05:13:57.917Z,22.62
2022-08-24T05:16:26.185Z,22.52
2022-08-24T05:18:54.683Z,22.43
2022-08-24T05:21:24.665Z,22.70
2022-08-24T05:23:54.362Z,22.87
2022-08-24T05:26:26.038Z,22.94
2022-08-24T05:28:56.071Z,22.98
2022-08-24T05:31:26.131Z,23.19
2022-08-24T05:33:53.629Z,23.10
2022-08-24T05:36:20.964Z,23.26
2022-08-24T05:38:49.204Z,23.25
2022-08-24T05:41:17.680Z,23.16
2022-08-24T05:43:46.704Z,23.41
2022-08-24T05:46:14.783Z,23.44
2022-08-24T05:48:42.289Z,23.50
2022-08-24T05:51:11.193Z,23.67
2022-08-24T05:53:48.829Z,23.89
2022-08-24T05:56:17.541Z,23.93
2022-08-24T05:58:45.678Z,24.18
2022-08-24T06:01:17.014Z,24.32
2022-08-24T06:03:44.360Z,24.48
2022-08-24T06:06:14.940Z,24.57
2022-08-24T06:08:45.765Z,24.62
2022-08-24T06:11:23.997Z,24.79
2022-08-24T06:14:00.927Z,24.82
2022-08-24T06:16:30.706Z,24.83
2022-08-24T06:18:57.738Z,24.87
2022-08-24T06:21:28.757Z,25.20
2022-08-24T06:23:57.446Z,25.23
2022-08-24T06:26:42.800Z,25.16
2022-08-24T06:29:12.231Z,25.17
2022-08-24T06:31:47.113Z,25.25
2022-08-24T06:34:18.043Z,25.26
2022-08-24T06:36:45.564Z,25.30
2022-08-24T06:39:14.185Z,25.37
2022-08-24T06:41:44.937Z,25.53
2022-08-24T06:44:17.450Z,25.57
2022-08-24T06:46:55.139Z,25.66
2022-08-24T06:49:22.075Z,25.73
2022-08-24T06:51:50.872Z,25.74
2022-08-24T06:54:20.935Z,25.91
2022-08-24T06:56:48.869Z,25.99
2022-08-24T06:59:16.300Z,25.90
2022-08-24T07:01:43.253Z,26.19
2022-08-24T07:04:10.836Z,26.33
2022-08-24T07:07:06.479Z,26.65
2022-08-24T07:09:33.583Z,26.87
2022-08-24T07:12:01.542Z,26.71
2022-08-24T07:14:29.879Z,26.69
2022-08-24T07:16:58.877Z,26.94
2022-08-24T07:19:25.959Z,27.09
2022-08-24T07:21:58.000Z,27.22
2022-08-24T07:24:26.537Z,27.46
2022-08-24T07:26:54.355Z,27.46
2022-08-24T07:29:50.362Z,27.69
2022-08-24T07:32:10.192Z,27.88
2022-08-24T07:34:40.479Z,27.94
2022-08-24T07:37:08.233Z,28.49
2022-08-24T07:39:41.313Z,28.41
2022-08-24T07:42:15.844Z,28.37
2022-08-24T07:44:48.344Z,28.35
2022-08-24T07:47:37.410Z,28.61
2022-08-24T07:50:13.574Z,28.82
2022-08-24T07:52:41.628Z,28.93
2022-08-24T07:55:11.578Z,29.08
2022-08-24T07:57:40.697Z,29.32
2022-08-24T08:00:12.737Z,29.29
2022-08-24T08:02:46.687Z,29.31
2022-08-24T08:05:18.057Z,28.75
2022-08-24T08:07:51.631Z,29.38
2022-08-24T08:10:19.236Z,29.32
2022-08-24T08:12:47.154Z,29.35
2022-08-24T08:15:13.971Z,29.39
2022-08-24T08:17:55.725Z,29.10
2022-08-24T08:20:23.494Z,29.26
2022-08-24T08:23:09.450Z,29.30
2022-08-24T08:25:55.322Z,29.27
2022-08-24T08:28:37.378Z,29.51
2022-08-24T08:31:05.757Z,29.39
2022-08-24T08:33:36.263Z,29.49
2022-08-24T08:36:07.864Z,29.85
2022-08-24T08:38:38.567Z,29.93
2022-08-24T08:41:35.141Z,29.56
2022-08-24T08:44:34.788Z,29.85
2022-08-24T08:47:05.493Z,30.56
2022-08-24T08:49:57.133Z,30.65
2022-08-24T08:52:53.072Z,30.51
2022-08-24T08:55:35.151Z,30.80
2022-08-24T08:58:28.669Z,30.66
2022-08-24T09:01:05.158Z,31.31
2022-08-24T09:03:57.360Z,31.11
2022-08-24T09:06:45.013Z,31.35
2022-08-24T09:09:26.941Z,31.77
2022-08-24T09:11:57.459Z,31.58
2022-08-24T09:14:55.399Z,31.60
2022-08-24T09:17:38.566Z,31.53
2022-08-24T09:20:20.877Z,31.24
2022-08-24T09:22:55.136Z,31.56
2022-08-24T09:26:18.572Z,31.61
2022-08-24T09:29:14.406Z,31.17
2022-08-24T09:32:09.384Z,31.71
2022-08-24T09:35:01.184Z,31.77
2022-08-24T09:37:50.745Z,31.57
2022-08-24T09:40:39.489Z,31.49
2022-08-24T09:43:28.961Z,31.84
2022-08-24T09:46:08.951Z,32.39
2022-08-24T09:49:00.555Z,32.19
2022-08-24T09:51:42.552Z,32.79
2022-08-24T09:54:32.153Z,33.17
2022-08-24T09:57:44.227Z,32.72
2022-08-24T10:00:21.941Z,33.06
2022-08-24T10:03:32.378Z,32.97
2022-08-24T10:06:18.066Z,32.95
2022-08-24T10:09:25.698Z,33.10
2022-08-24T10:12:20.377Z,33.77
2022-08-24T10:15:05.873Z,34.17
2022-08-24T10:18:06.142Z,34.33
2022-08-24T10:21:02.187Z,34.17
2022-08-24T10:23:50.615Z,34.19
2022-08-24T10:26:36.703Z,34.35
2022-08-24T10:29:18.692Z,34.62
2022-08-24T10:31:47.754Z,34.01
2022-08-24T10:34:36.898Z,34.58
2022-08-24T10:37:42.407Z,34.97
2022-08-24T10:40:40.082Z,34.92
2022-08-24T10:43:47.474Z,34.70
2022-08-24T10:46:48.076Z,35.06
2022-08-24T10:49:33.544Z,35.78
2022-08-24T10:52:38.470Z,35.66
2022-08-24T10:55:32.991Z,35.73
2022-08-24T10:58:18.468Z,35.70
2022-08-24T11:00:45.503Z,34.49
2022-08-24T11:03:16.444Z,35.04
2022-08-24T11:05:55.184Z,35.33
2022-08-24T11:08:33.379Z,36.11
2022-08-24T11:11:10.418Z,35.42
2022-08-24T11:13:50.587Z,36.23
2022-08-24T11:16:25.851Z,36.37
2022-08-24T11:18:57.536Z,35.97
2022-08-24T11:21:38.780Z,35.14
2022-08-24T11:24:14.037Z,36.13
2022-08-24T11:27:18.413Z,35.32
2022-08-24T11:29:51.599Z,35.57
2022-08-24T11:32:38.984Z,35.07
2022-08-24T11:35:27.009Z,35.42
2022-08-24T11:38:23.490Z,35.29
2022-08-24T11:40:57.814Z,35.22
2022-08-24T11:43:31.931Z,35.67
2022-08-24T11:46:12.135Z,36.14
2022-08-24T11:48:48.958Z,36.85
2022-08-24T11:51:45.248Z,37.22
2022-08-24T11:54:43.795Z,37.16
2022-08-24T11:57:48.097Z,37.01
2022-08-24T12:00:21.462Z,36.08
2022-08-24T12:03:21.560Z,35.99
2022-08-24T12:06:13.809Z,36.01
2022-08-24T12:09:01.317Z,35.49
2022-08-24T12:11:41.898Z,34.79
2022-08-24T12:14:27.427Z,34.08
2022-08-24T12:17:04.738Z,34.03
2022-08-24T12:19:35.623Z,34.22
2022-08-24T12:22:05.991Z,34.15
2022-08-24T12:24:39.614Z,33.67
2022-08-24T12:27:38.991Z,32.95
2022-08-24T12:30:13.222Z,33.33
2022-08-24T12:32:48.459Z,33.01
2022-08-24T12:35:28.544Z,33.56
2022-08-24T12:38:12.357Z,33.76
2022-08-24T12:40:53.862Z,32.02
2022-08-24T12:43:31.956Z,32.93
2022-08-24T12:46:01.423Z,32.47
2022-08-24T12:48:39.518Z,31.85
2022-08-24T12:51:40.096Z,32.22
2022-08-24T12:54:13.688Z,32.28
2022-08-24T12:57:28.204Z,31.60
2022-08-24T12:59:58.847Z,30.13
2022-08-24T13:02:30.729Z,30.22
2022-08-24T13:05:03.349Z,29.90
2022-08-24T13:07:46.612Z,30.73
2022-08-24T13:10:44.142Z,30.50
2022-08-24T13:13:16.624Z,30.00
2022-08-24T13:15:54.140Z,29.69
2022-08-24T13:18:20.927Z,29.54
2022-08-24T13:20:50.663Z,30.43
2022-08-24T13:23:23.818Z,30.83
2022-08-24T13:26:23.067Z,31.01
2022-08-24T13:28:56.819Z,30.83
2022-08-24T13:31:34.413Z,30.72
2022-08-24T13:34:08.963Z,32.12
2022-08-24T13:36:35.716Z,31.85
2022-08-24T13:39:34.999Z,31.69
2022-08-24T13:42:10.930Z,32.02
2022-08-24T13:44:57.241Z,32.68
2022-08-24T13:48:03.070Z,33.77
2022-08-24T13:50:46.831Z,33.58
2022-08-24T13:53:49.175Z,33.81
2022-08-24T13:56:28.318Z,33.70
2022-08-24T13:59:44.514Z,33.90
2022-08-24T14:02:14.315Z,34.09
2022-08-24T14:04:56.464Z,33.24
2022-08-24T14:07:34.331Z,33.57
2022-08-24T14:10:01.066Z,34.25
2022-08-24T14:12:31.016Z,33.27
2022-08-24T14:15:31.974Z,33.06
2022-08-24T14:19:12.127Z,33.24
2022-08-24T14:21:56.802Z,33.83
2022-08-24T14:24:40.368Z,34.10
2022-08-24T14:27:49.913Z,33.85
2022-08-24T14:30:19.818Z,33.40
2022-08-24T14:33:03.177Z,33.99
2022-08-24T14:35:42.128Z,33.97
2022-08-24T14:38:26.326Z,33.84
2022-08-24T14:41:40.345Z,34.82
2022-08-24T14:44:19.827Z,34.71
2022-08-24T14:46:49.534Z,34.64
2022-08-24T14:49:40.066Z,34.52
2022-08-24T14:52:39.695Z,34.61
2022-08-24T14:55:18.396Z,33.77
2022-08-24T14:58:29.156Z,33.86
2022-08-24T15:01:02.746Z,33.98
2022-08-24T15:03:48.191Z,33.48
2022-08-24T15:06:28.161Z,33.10
2022-08-24T15:09:07.167Z,33.00
2022-08-24T15:11:38.654Z,34.00
2022-08-24T15:14:09.686Z,33.61
2022-08-24T15:16:49.022Z,34.20
2022-08-24T15:19:23.976Z,34.24
2022-08-24T15:22:15.168Z,34.06
2022-08-24T15:24:52.702Z,34.42
2022-08-24T15:27:40.643Z,33.74
2022-08-24T15:30:22.964Z,32.76
2022-08-24T15:33:04.170Z,33.16
2022-08-24T15:35:35.485Z,33.36
2022-08-24T15:38:36.597Z,33.62
2022-08-24T15:41:20.138Z,33.38
2022-08-24T15:43:48.878Z,34.27
2022-08-24T15:46:20.124Z,34.52
2022-08-24T15:48:48.445Z,33.47
2022-08-24T15:51:36.693Z,32.26
2022-08-24T15:54:30.552Z,31.95
2022-08-24T15:57:02.264Z,32.39
2022-08-24T15:59:44.403Z,32.03
2022-08-24T16:02:26.569Z,33.03
2022-08-24T16:05:16.530Z,33.12
2022-08-24T16:08:01.883Z,32.80
2022-08-24T16:10:41.597Z,31.93
2022-08-24T16:13:16.008Z,32.04
2022-08-24T16:15:59.475Z,32.29
2022-08-24T16:18:45.160Z,31.80
2022-08-24T16:21:40.139Z,31.57
2022-08-24T16:24:17.431Z,31.70
2022-08-24T16:26:47.246Z,31.25
2022-08-24T16:29:39.087Z,32.02
2022-08-24T16:32:11.192Z,31.75
2022-08-24T16:34:54.880Z,31.05
2022-08-24T16:37:23.717Z,30.86
2022-08-24T16:39:51.264Z,31.62
2022-08-24T16:42:27.283Z,32.04
2022-08-24T16:44:55.625Z,31.40
2022-08-24T16:47:23.279Z,32.08
2022-08-24T16:49:51.453Z,31.93
2022-08-24T16:52:18.734Z,31.99
2022-08-24T16:54:46.410Z,31.56
2022-08-24T16:57:17.787Z,31.32
2022-08-24T16:59:47.634Z,30.78
2022-08-24T17:02:17.037Z,31.06
2022-08-24T17:04:44.338Z,30.61
2022-08-24T17:07:15.823Z,30.21
2022-08-24T17:09:46.208Z,29.92
2022-08-24T17:12:13.531Z,29.85
2022-08-24T17:14:40.853Z,29.61
2022-08-24T17:17:10.534Z,29.86
2022-08-24T17:19:38.995Z,29.35
2022-08-24T17:22:12.893Z,29.37
2022-08-24T17:24:42.520Z,29.22
2022-08-24T17:27:09.557Z,28.93
2022-08-24T17:29:36.535Z,28.91
2022-08-24T17:32:04.036Z,28.95
2022-08-24T17:34:32.193Z,28.97
2022-08-24T17:37:00.101Z,29.06
2022-08-24T17:39:27.915Z,29.01
2022-08-24T17:41:56.332Z,28.61
2022-08-24T17:44:26.800Z,28.99
2022-08-24T17:46:57.654Z,28.79
2022-08-24T17:49:24.744Z,28.73
2022-08-24T17:51:53.137Z,28.48
2022-08-24T17:54:20.059Z,28.86
2022-08-24T17:56:48.882Z,28.33
2022-08-24T17:59:20.690Z,28.03
2022-08-24T18:01:50.189Z,27.67
2022-08-24T18:04:18.218Z,27.65
2022-08-24T18:06:45.237Z,27.48
2022-08-24T18:09:19.442Z,27.91
2022-08-24T18:11:46.344Z,28.11
2022-08-24T18:14:13.821Z,27.98
2022-08-24T18:16:41.136Z,28.08
2022-08-24T18:19:09.411Z,28.02
2022-08-24T18:21:36.267Z,27.79
2022-08-24T18:24:06.435Z,27.30
2022-08-24T18:26:33.708Z,26.89
2022-08-24T18:29:23.148Z,26.93
2022-08-24T18:31:50.615Z,26.74
2022-08-24T18:34:21.230Z,26.55
2022-08-24T18:36:49.121Z,26.42
2022-08-24T18:39:16.264Z,26.42
2022-08-24T18:41:49.286Z,26.30
2022-08-24T18:44:21.563Z,26.17
2022-08-24T18:46:49.102Z,26.00
2022-08-24T18:49:17.556Z,25.93
2022-08-24T18:51:48.051Z,25.74
2022-08-24T18:54:22.139Z,25.73
2022-08-24T18:56:49.742Z,25.88
2022-08-24T18:59:18.552Z,25.74
2022-08-24T19:02:07.707Z,26.61
2022-08-24T19:04:46.028Z,26.71
2022-08-24T19:07:14.033Z,26.50
2022-08-24T19:09:41.281Z,26.24
2022-08-24T19:12:08.901Z,26.37
2022-08-24T19:14:36.833Z,26.72
2022-08-24T19:17:04.532Z,27.24
2022-08-24T19:19:31.365Z,27.11
2022-08-24T19:21:59.048Z,26.27
2022-08-24T19:24:27.525Z,25.86
2022-08-24T19:26:54.798Z,25.71
2022-08-24T19:29:44.843Z,25.60
2022-08-24T19:32:21.697Z,25.45
2022-08-24T19:34:50.053Z,25.63
2022-08-24T19:37:17.107Z,25.62
2022-08-24T19:39:44.220Z,25.62
2022-08-24T19:42:13.768Z,25.87
2022-08-24T19:44:59.404Z,25.95
2022-08-24T19:47:26.382Z,26.00
2022-08-24T19:49:53.287Z,25.91
2022-08-24T19:52:20.619Z,25.81
2022-08-24T19:54:47.904Z,25.81
2022-08-24T19:57:33.175Z,25.89
2022-08-24T20:00:07.365Z,25.83
2022-08-24T20:02:35.736Z,25.56
2022-08-24T20:05:02.654Z,25.56
2022-08-24T20:07:29.699Z,25.13
2022-08-24T20:09:56.627Z,25.13
2022-08-24T20:12:23.458Z,25.03
2022-08-24T20:14:50.452Z,25.00
2022-08-24T20:17:17.395Z,24.92
2022-08-24T20:19:45.098Z,24.78
2022-08-24T20:22:13.537Z,24.26
2022-08-24T20:24:40.702Z,24.77
2022-08-24T20:27:07.563Z,24.55
2022-08-24T20:29:34.473Z,24.51
2022-08-24T20:32:02.624Z,24.37
2022-08-24T20:34:29.688Z,24.20
2022-08-24T20:36:58.453Z,24.25
2022-08-24T20:39:27.079Z,24.49
2022-08-24T20:41:54.223Z,24.97
2022-08-24T20:44:21.780Z,24.98
2022-08-24T20:46:50.192Z,24.84
2022-08-24T20:49:21.490Z,24.63
2022-08-24T20:51:48.959Z,24.63
2022-08-24T20:54:16.037Z,24.79
2022-08-24T20:56:44.481Z,24.58
2022-08-24T20:59:14.284Z,24.86
2022-08-24T21:01:42.892Z,24.83
2022-08-24T21:04:10.211Z,24.59
2022-08-24T21:06:39.123Z,24.51
2022-08-24T21:09:06.385Z,24.36
2022-08-24T21:11:34.043Z,24.22
2022-08-24T21:14:02.428Z,24.25
2022-08-24T21:16:29.401Z,24.32
2022-08-24T21:18:56.260Z,23.94
2022-08-24T21:21:23.107Z,23.52
2022-08-24T21:23:49.881Z,23.68
2022-08-24T21:26:22.124Z,23.60
2022-08-24T21:28:50.263Z,23.32
2022-08-24T21:31:17.175Z,23.32
2022-08-24T21:34:02.571Z,23.40
2022-08-24T21:36:31.855Z,24.02
2022-08-24T21:38:59.964Z,24.01
2022-08-24T21:41:29.398Z,24.31
2022-08-24T21:43:56.859Z,24.16
2022-08-24T21:46:30.579Z,24.29
2022-08-24T21:48:57.425Z,24.60
2022-08-24T21:51:24.309Z,24.72
2022-08-24T21:53:51.128Z,24.92
2022-08-24T21:56:30.408Z,24.97
2022-08-24T21:58:57.354Z,25.05
2022-08-24T22:01:24.316Z,25.13
2022-08-24T22:03:51.262Z,25.07
2022-08-24T22:06:18.374Z,25.01
2022-08-24T22:08:45.243Z,24.95
2022-08-24T22:11:14.506Z,25.06
2022-08-24T22:13:42.290Z,24.99
2022-08-24T22:16:10.504Z,25.14
2022-08-24T22:18:37.836Z,25.00
2022-08-24T22:21:10.273Z,24.88
2022-08-24T22:23:37.294Z,25.13
2022-08-24T22:26:05.638Z,25.22
2022-08-24T22:28:37.710Z,24.93
2022-08-24T22:31:18.695Z,25.03
2022-08-24T22:33:45.991Z,25.10
2022-08-24T22:36:14.027Z,24.96
2022-08-24T22:38:41.321Z,24.97
2022-08-24T22:41:09.016Z,24.91
2022-08-24T22:43:54.529Z,24.78
2022-08-24T22:46:22.756Z,24.78
2022-08-24T22:48:49.687Z,24.91
2022-08-24T22:51:18.627Z,24.96
2022-08-24T22:53:46.206Z,24.86
2022-08-24T22:56:20.738Z,24.91
2022-08-24T22:58:47.764Z,24.96
2022-08-24T23:01:38.827Z,24.93
2022-08-24T23:04:09.703Z,24.99
2022-08-24T23:06:36.734Z,25.01
2022-08-24T23:09:05.515Z,24.92
2022-08-24T23:11:33.084Z,24.84
2022-08-24T23:14:04.720Z,24.83
2022-08-24T23:16:35.030Z,24.88
2022-08-24T23:19:20.619Z,24.86
2022-08-24T23:21:47.421Z,24.82
2022-08-24T23:24:14.692Z,24.76
2022-08-24T23:26:42.651Z,24.68
2022-08-24T23:29:11.598Z,24.63
2022-08-24T23:31:39.388Z,24.56
2022-08-24T23:34:08.000Z,24.55
2022-08-24T23:36:36.462Z,24.44
2022-08-24T23:39:06.544Z,24.37
2022-08-24T23:41:37.130Z,24.32
2022-08-24T23:44:07.192Z,24.24
2022-08-24T23:46:34.184Z,24.23
2022-08-24T23:49:03.430Z,24.17
2022-08-24T23:51:31.201Z,24.13
2022-08-24T23:53:59.042Z,24.14
2022-08-24T23:56:31.673Z,24.07
2022-08-24T23:59:02.760Z,24.01
